sensor_id;sensor_type;location;lat;lon;timestamp;temperature;humidity
18876;DHT22;9570;50.854;13.778;2023-05-07T00:01:16;11.20;99.90
18876;DHT22;9570;50.854;13.778;2023-05-07T00:03:41;11.30;99.90
18876;DHT22;9570;50.854;13.778;2023-05-07T00:06:07;11.30;99.90
18876;DHT22;9570;50.854;13.778;2023-05-07T00:08:32;11.20;99.90
18876;DHT22;9570;50.854;13.778;2023-05-07T00:10:58;10.90;99.90
18876;DHT22;9570;50.854;13.778;2023-05-07T00:13:23;10.80;99.90
18876;DHT22;9570;50.854;13.778;2023-05-07T00:15:49;11.00;99.90
18876;DHT22;9570;50.854;13.778;2023-05-07T00:18:14;11.10;99.90
18876;DHT22;9570;50.854;13.778;2023-05-07T00:20:39;11.30;99.90
18876;DHT22;9570;50.854;13.778;2023-05-07T00:23:05;11.30;99.90
18876;DHT22;9570;50.854;13.778;2023-05-07T00:25:30;11.30;99.90
18876;DHT22;9570;50.854;13.778;2023-05-07T00:27:56;11.30;99.90
18876;DHT22;9570;50.854;13.778;2023-05-07T00:30:23;11.10;99.90
18876;DHT22;9570;50.854;13.778;2023-05-07T00:32:48;11.10;99.90
18876;DHT22;9570;50.854;13.778;2023-05-07T00:35:14;11.20;99.90
18876;DHT22;9570;50.854;13.778;2023-05-07T00:37:39;11.20;99.90
18876;DHT22;9570;50.854;13.778;2023-05-07T00:40:06;11.30;99.90
18876;DHT22;9570;50.854;13.778;2023-05-07T00:42:32;11.20;99.90
18876;DHT22;9570;50.854;13.778;2023-05-07T00:44:58;11.10;99.90
18876;DHT22;9570;50.854;13.778;2023-05-07T00:47:25;11.10;99.90
18876;DHT22;9570;50.854;13.778;2023-05-07T00:49:50;11.20;99.90
18876;DHT22;9570;50.854;13.778;2023-05-07T00:52:17;11.20;99.90
18876;DHT22;9570;50.854;13.778;2023-05-07T00:54:44;11.10;99.90
18876;DHT22;9570;50.854;13.778;2023-05-07T00:57:10;11.10;99.90
18876;DHT22;9570;50.854;13.778;2023-05-07T00:59:39;11.20;99.90
18876;DHT22;9570;50.854;13.778;2023-05-07T01:02:06;11.20;99.90
18876;DHT22;9570;50.854;13.778;2023-05-07T01:04:32;10.90;99.90
18876;DHT22;9570;50.854;13.778;2023-05-07T01:06:58;11.00;99.90
18876;DHT22;9570;50.854;13.778;2023-05-07T01:09:24;10.90;99.90
18876;DHT22;9570;50.854;13.778;2023-05-07T01:11:50;11.00;99.90
18876;DHT22;9570;50.854;13.778;2023-05-07T01:14:18;11.00;99.90
18876;DHT22;9570;50.854;13.778;2023-05-07T01:16:43;11.00;99.90
18876;DHT22;9570;50.854;13.778;2023-05-07T01:19:09;11.10;99.90
18876;DHT22;9570;50.854;13.778;2023-05-07T01:21:37;11.10;99.90
18876;DHT22;9570;50.854;13.778;2023-05-07T01:24:04;11.10;99.90
18876;DHT22;9570;50.854;13.778;2023-05-07T01:26:30;11.10;99.90
18876;DHT22;9570;50.854;13.778;2023-05-07T01:28:55;11.10;99.90
18876;DHT22;9570;50.854;13.778;2023-05-07T01:31:22;11.20;99.90
18876;DHT22;9570;50.854;13.778;2023-05-07T01:33:50;11.10;99.90
18876;DHT22;9570;50.854;13.778;2023-05-07T01:36:17;11.10;99.90
18876;DHT22;9570;50.854;13.778;2023-05-07T01:38:43;11.20;99.90
18876;DHT22;9570;50.854;13.778;2023-05-07T01:41:09;11.10;99.90
18876;DHT22;9570;50.854;13.778;2023-05-07T01:43:35;11.10;99.90
18876;DHT22;9570;50.854;13.778;2023-05-07T01:46:01;11.10;99.90
18876;DHT22;9570;50.854;13.778;2023-05-07T01:48:28;11.10;99.90
18876;DHT22;9570;50.854;13.778;2023-05-07T01:50:55;11.00;99.90
18876;DHT22;9570;50.854;13.778;2023-05-07T01:53:20;11.00;99.90
18876;DHT22;9570;50.854;13.778;2023-05-07T01:55:46;11.10;99.90
18876;DHT22;9570;50.854;13.778;2023-05-07T01:58:11;11.10;99.90
18876;DHT22;9570;50.854;13.778;2023-05-07T02:00:37;11.10;99.90
18876;DHT22;9570;50.854;13.778;2023-05-07T02:03:02;10.90;99.90
18876;DHT22;9570;50.854;13.778;2023-05-07T02:05:28;10.80;99.90
18876;DHT22;9570;50.854;13.778;2023-05-07T02:07:53;10.80;99.90
18876;DHT22;9570;50.854;13.778;2023-05-07T02:10:18;10.80;99.90
18876;DHT22;9570;50.854;13.778;2023-05-07T02:12:44;10.60;99.90
18876;DHT22;9570;50.854;13.778;2023-05-07T02:15:10;10.70;99.90
18876;DHT22;9570;50.854;13.778;2023-05-07T02:17:39;10.60;99.90
18876;DHT22;9570;50.854;13.778;2023-05-07T02:20:23;10.70;99.90
18876;DHT22;9570;50.854;13.778;2023-05-07T02:22:48;10.60;99.90
18876;DHT22;9570;50.854;13.778;2023-05-07T02:25:14;10.50;99.90
18876;DHT22;9570;50.854;13.778;2023-05-07T02:27:39;10.60;99.90
18876;DHT22;9570;50.854;13.778;2023-05-07T02:30:05;10.50;99.90
18876;DHT22;9570;50.854;13.778;2023-05-07T02:32:31;10.60;99.90
18876;DHT22;9570;50.854;13.778;2023-05-07T02:34:56;10.50;99.90
18876;DHT22;9570;50.854;13.778;2023-05-07T02:37:22;10.50;99.90
18876;DHT22;9570;50.854;13.778;2023-05-07T02:39:47;10.50;99.90
18876;DHT22;9570;50.854;13.778;2023-05-07T02:42:13;10.50;99.90
18876;DHT22;9570;50.854;13.778;2023-05-07T02:44:38;10.60;99.90
18876;DHT22;9570;50.854;13.778;2023-05-07T02:47:04;10.70;99.90
18876;DHT22;9570;50.854;13.778;2023-05-07T02:49:29;10.60;99.90
18876;DHT22;9570;50.854;13.778;2023-05-07T02:51:55;10.60;99.90
18876;DHT22;9570;50.854;13.778;2023-05-07T02:54:21;10.50;99.90
18876;DHT22;9570;50.854;13.778;2023-05-07T02:56:46;10.40;99.90
18876;DHT22;9570;50.854;13.778;2023-05-07T02:59:12;10.40;99.90
18876;DHT22;9570;50.854;13.778;2023-05-07T03:01:37;10.50;99.90
18876;DHT22;9570;50.854;13.778;2023-05-07T03:04:03;10.60;99.90
18876;DHT22;9570;50.854;13.778;2023-05-07T03:06:28;10.50;99.90
18876;DHT22;9570;50.854;13.778;2023-05-07T03:08:54;10.50;99.90
18876;DHT22;9570;50.854;13.778;2023-05-07T03:11:19;10.30;99.90
18876;DHT22;9570;50.854;13.778;2023-05-07T03:13:45;10.30;99.90
18876;DHT22;9570;50.854;13.778;2023-05-07T03:16:10;10.40;99.90
18876;DHT22;9570;50.854;13.778;2023-05-07T03:18:36;10.50;99.90
18876;DHT22;9570;50.854;13.778;2023-05-07T03:21:01;10.50;99.90
18876;DHT22;9570;50.854;13.778;2023-05-07T03:23:26;10.40;99.90
18876;DHT22;9570;50.854;13.778;2023-05-07T03:25:52;10.30;99.90
18876;DHT22;9570;50.854;13.778;2023-05-07T03:28:17;10.30;99.90
18876;DHT22;9570;50.854;13.778;2023-05-07T03:30:43;10.40;99.90
18876;DHT22;9570;50.854;13.778;2023-05-07T03:33:08;10.30;99.90
18876;DHT22;9570;50.854;13.778;2023-05-07T03:35:34;10.30;99.90
18876;DHT22;9570;50.854;13.778;2023-05-07T03:37:59;10.30;99.90
18876;DHT22;9570;50.854;13.778;2023-05-07T03:40:25;10.30;99.90
18876;DHT22;9570;50.854;13.778;2023-05-07T03:42:51;10.40;99.90
18876;DHT22;9570;50.854;13.778;2023-05-07T03:45:16;10.40;99.90
18876;DHT22;9570;50.854;13.778;2023-05-07T03:47:42;10.40;99.90
18876;DHT22;9570;50.854;13.778;2023-05-07T03:50:07;10.50;99.90
18876;DHT22;9570;50.854;13.778;2023-05-07T03:52:33;10.60;99.90
18876;DHT22;9570;50.854;13.778;2023-05-07T03:54:58;10.60;99.90
18876;DHT22;9570;50.854;13.778;2023-05-07T03:57:24;10.40;99.90
18876;DHT22;9570;50.854;13.778;2023-05-07T03:59:49;10.20;99.90
18876;DHT22;9570;50.854;13.778;2023-05-07T04:02:15;10.30;99.90
18876;DHT22;9570;50.854;13.778;2023-05-07T04:04:41;10.20;99.90
18876;DHT22;9570;50.854;13.778;2023-05-07T04:07:06;10.20;99.90
18876;DHT22;9570;50.854;13.778;2023-05-07T04:09:32;10.10;99.90
18876;DHT22;9570;50.854;13.778;2023-05-07T04:11:58;10.30;99.90
18876;DHT22;9570;50.854;13.778;2023-05-07T04:14:23;10.40;99.90
18876;DHT22;9570;50.854;13.778;2023-05-07T04:16:48;10.20;99.90
18876;DHT22;9570;50.854;13.778;2023-05-07T04:19:14;10.30;99.90
18876;DHT22;9570;50.854;13.778;2023-05-07T04:21:39;10.40;99.90
18876;DHT22;9570;50.854;13.778;2023-05-07T04:24:05;10.50;99.90
18876;DHT22;9570;50.854;13.778;2023-05-07T04:26:31;10.60;99.90
18876;DHT22;9570;50.854;13.778;2023-05-07T04:28:56;10.60;99.90
18876;DHT22;9570;50.854;13.778;2023-05-07T04:31:24;10.60;99.90
18876;DHT22;9570;50.854;13.778;2023-05-07T04:33:50;10.60;99.90
18876;DHT22;9570;50.854;13.778;2023-05-07T04:36:16;10.60;99.90
18876;DHT22;9570;50.854;13.778;2023-05-07T04:38:42;10.60;99.90
18876;DHT22;9570;50.854;13.778;2023-05-07T04:41:09;10.50;99.90
18876;DHT22;9570;50.854;13.778;2023-05-07T04:43:34;10.60;99.90
18876;DHT22;9570;50.854;13.778;2023-05-07T04:46:00;10.60;99.90
18876;DHT22;9570;50.854;13.778;2023-05-07T04:48:25;10.60;99.90
18876;DHT22;9570;50.854;13.778;2023-05-07T04:50:51;10.60;99.90
18876;DHT22;9570;50.854;13.778;2023-05-07T04:53:18;10.50;99.90
18876;DHT22;9570;50.854;13.778;2023-05-07T04:55:44;10.60;99.90
18876;DHT22;9570;50.854;13.778;2023-05-07T04:58:11;10.60;99.90
18876;DHT22;9570;50.854;13.778;2023-05-07T05:00:37;10.30;99.90
18876;DHT22;9570;50.854;13.778;2023-05-07T05:03:04;10.20;99.90
18876;DHT22;9570;50.854;13.778;2023-05-07T05:05:30;10.10;99.90
18876;DHT22;9570;50.854;13.778;2023-05-07T05:07:55;10.20;99.90
18876;DHT22;9570;50.854;13.778;2023-05-07T05:10:22;10.20;99.90
18876;DHT22;9570;50.854;13.778;2023-05-07T05:12:47;10.40;99.90
18876;DHT22;9570;50.854;13.778;2023-05-07T05:15:13;10.30;99.90
18876;DHT22;9570;50.854;13.778;2023-05-07T05:17:38;10.20;99.90
18876;DHT22;9570;50.854;13.778;2023-05-07T05:20:05;10.30;99.90
18876;DHT22;9570;50.854;13.778;2023-05-07T05:22:31;10.40;99.90
18876;DHT22;9570;50.854;13.778;2023-05-07T05:24:57;10.50;99.90
18876;DHT22;9570;50.854;13.778;2023-05-07T05:27:22;10.50;99.90
18876;DHT22;9570;50.854;13.778;2023-05-07T05:29:48;10.60;99.90
18876;DHT22;9570;50.854;13.778;2023-05-07T05:32:13;10.60;99.90
18876;DHT22;9570;50.854;13.778;2023-05-07T05:34:39;10.60;99.90
18876;DHT22;9570;50.854;13.778;2023-05-07T05:37:04;10.60;99.90
18876;DHT22;9570;50.854;13.778;2023-05-07T05:39:30;10.30;99.90
18876;DHT22;9570;50.854;13.778;2023-05-07T05:41:56;10.30;99.90
18876;DHT22;9570;50.854;13.778;2023-05-07T05:44:21;10.50;99.90
18876;DHT22;9570;50.854;13.778;2023-05-07T05:46:46;10.70;99.90
18876;DHT22;9570;50.854;13.778;2023-05-07T05:49:12;10.80;99.90
18876;DHT22;9570;50.854;13.778;2023-05-07T05:51:38;10.90;99.90
18876;DHT22;9570;50.854;13.778;2023-05-07T05:54:03;11.00;99.90
18876;DHT22;9570;50.854;13.778;2023-05-07T05:56:29;10.80;99.90
18876;DHT22;9570;50.854;13.778;2023-05-07T05:58:55;10.60;99.90
18876;DHT22;9570;50.854;13.778;2023-05-07T06:01:20;10.70;99.90
18876;DHT22;9570;50.854;13.778;2023-05-07T06:03:46;10.70;99.90
18876;DHT22;9570;50.854;13.778;2023-05-07T06:06:11;10.80;99.90
18876;DHT22;9570;50.854;13.778;2023-05-07T06:08:37;10.70;99.90
18876;DHT22;9570;50.854;13.778;2023-05-07T06:11:02;10.50;99.90
18876;DHT22;9570;50.854;13.778;2023-05-07T06:13:28;10.50;99.90
18876;DHT22;9570;50.854;13.778;2023-05-07T06:15:54;10.70;99.90
18876;DHT22;9570;50.854;13.778;2023-05-07T06:18:19;10.60;99.90
18876;DHT22;9570;50.854;13.778;2023-05-07T06:20:44;10.50;99.90
18876;DHT22;9570;50.854;13.778;2023-05-07T06:23:10;10.30;99.90
18876;DHT22;9570;50.854;13.778;2023-05-07T06:25:35;10.20;99.90
18876;DHT22;9570;50.854;13.778;2023-05-07T06:28:01;10.20;99.90
18876;DHT22;9570;50.854;13.778;2023-05-07T06:30:26;10.00;99.90
18876;DHT22;9570;50.854;13.778;2023-05-07T06:32:52;10.00;99.90
18876;DHT22;9570;50.854;13.778;2023-05-07T06:35:17;10.10;99.90
18876;DHT22;9570;50.854;13.778;2023-05-07T06:37:43;10.20;99.90
18876;DHT22;9570;50.854;13.778;2023-05-07T06:40:09;10.40;99.90
18876;DHT22;9570;50.854;13.778;2023-05-07T06:42:36;10.40;99.90
18876;DHT22;9570;50.854;13.778;2023-05-07T06:45:01;10.30;99.90
18876;DHT22;9570;50.854;13.778;2023-05-07T06:47:28;10.10;99.90
18876;DHT22;9570;50.854;13.778;2023-05-07T06:49:53;10.10;99.90
18876;DHT22;9570;50.854;13.778;2023-05-07T06:52:19;10.10;99.90
18876;DHT22;9570;50.854;13.778;2023-05-07T06:54:44;10.10;99.90
18876;DHT22;9570;50.854;13.778;2023-05-07T06:57:10;10.00;99.90
18876;DHT22;9570;50.854;13.778;2023-05-07T06:59:35;10.10;99.90
18876;DHT22;9570;50.854;13.778;2023-05-07T07:02:00;10.00;99.90
18876;DHT22;9570;50.854;13.778;2023-05-07T07:04:26;10.00;99.90
18876;DHT22;9570;50.854;13.778;2023-05-07T07:06:53;10.20;99.90
18876;DHT22;9570;50.854;13.778;2023-05-07T07:09:18;10.20;99.90
18876;DHT22;9570;50.854;13.778;2023-05-07T07:11:44;10.30;99.90
18876;DHT22;9570;50.854;13.778;2023-05-07T07:14:09;10.30;99.90
18876;DHT22;9570;50.854;13.778;2023-05-07T07:16:35;10.20;99.90
18876;DHT22;9570;50.854;13.778;2023-05-07T07:19:00;10.20;99.90
18876;DHT22;9570;50.854;13.778;2023-05-07T07:21:26;10.30;99.90
18876;DHT22;9570;50.854;13.778;2023-05-07T07:23:51;10.30;99.90
18876;DHT22;9570;50.854;13.778;2023-05-07T07:26:17;10.30;99.90
18876;DHT22;9570;50.854;13.778;2023-05-07T07:28:44;10.20;99.90
18876;DHT22;9570;50.854;13.778;2023-05-07T07:31:10;10.30;99.90
18876;DHT22;9570;50.854;13.778;2023-05-07T07:33:35;10.50;99.90
18876;DHT22;9570;50.854;13.778;2023-05-07T07:36:01;10.70;99.90
18876;DHT22;9570;50.854;13.778;2023-05-07T07:38:26;10.80;99.90
18876;DHT22;9570;50.854;13.778;2023-05-07T07:40:52;10.90;99.90
18876;DHT22;9570;50.854;13.778;2023-05-07T07:43:17;10.80;99.90
18876;DHT22;9570;50.854;13.778;2023-05-07T07:45:43;10.80;99.90
18876;DHT22;9570;50.854;13.778;2023-05-07T07:48:09;10.90;99.90
18876;DHT22;9570;50.854;13.778;2023-05-07T07:50:34;11.00;99.90
18876;DHT22;9570;50.854;13.778;2023-05-07T07:53:00;10.80;99.90
18876;DHT22;9570;50.854;13.778;2023-05-07T07:55:25;10.80;99.90
18876;DHT22;9570;50.854;13.778;2023-05-07T07:57:52;10.60;99.90
18876;DHT22;9570;50.854;13.778;2023-05-07T08:00:18;10.80;99.90
18876;DHT22;9570;50.854;13.778;2023-05-07T08:02:43;11.00;99.90
18876;DHT22;9570;50.854;13.778;2023-05-07T08:05:08;11.10;99.90
18876;DHT22;9570;50.854;13.778;2023-05-07T08:07:34;11.00;99.90
18876;DHT22;9570;50.854;13.778;2023-05-07T08:10:00;11.00;99.90
18876;DHT22;9570;50.854;13.778;2023-05-07T08:12:25;11.00;99.90
18876;DHT22;9570;50.854;13.778;2023-05-07T08:14:51;10.60;99.90
18876;DHT22;9570;50.854;13.778;2023-05-07T08:17:16;10.40;99.90
18876;DHT22;9570;50.854;13.778;2023-05-07T08:19:42;10.40;99.90
18876;DHT22;9570;50.854;13.778;2023-05-07T08:22:09;10.50;99.90
18876;DHT22;9570;50.854;13.778;2023-05-07T08:24:36;10.50;99.90
18876;DHT22;9570;50.854;13.778;2023-05-07T08:27:01;10.60;99.90
18876;DHT22;9570;50.854;13.778;2023-05-07T08:29:27;10.70;99.90
18876;DHT22;9570;50.854;13.778;2023-05-07T08:31:52;10.80;99.90
18876;DHT22;9570;50.854;13.778;2023-05-07T08:34:18;10.80;99.90
18876;DHT22;9570;50.854;13.778;2023-05-07T08:36:43;11.00;99.90
18876;DHT22;9570;50.854;13.778;2023-05-07T08:39:09;10.90;99.90
18876;DHT22;9570;50.854;13.778;2023-05-07T08:41:34;10.70;99.90
18876;DHT22;9570;50.854;13.778;2023-05-07T08:44:02;10.60;99.90
18876;DHT22;9570;50.854;13.778;2023-05-07T08:46:31;10.50;99.90
18876;DHT22;9570;50.854;13.778;2023-05-07T08:48:57;10.60;99.90
18876;DHT22;9570;50.854;13.778;2023-05-07T08:51:22;10.70;99.90
18876;DHT22;9570;50.854;13.778;2023-05-07T08:53:49;10.60;99.90
18876;DHT22;9570;50.854;13.778;2023-05-07T08:56:15;10.40;99.90
18876;DHT22;9570;50.854;13.778;2023-05-07T08:58:42;10.30;99.90
18876;DHT22;9570;50.854;13.778;2023-05-07T09:01:09;10.50;99.90
18876;DHT22;9570;50.854;13.778;2023-05-07T09:03:37;10.50;99.90
18876;DHT22;9570;50.854;13.778;2023-05-07T09:06:03;10.60;99.90
18876;DHT22;9570;50.854;13.778;2023-05-07T09:08:29;10.50;99.90
18876;DHT22;9570;50.854;13.778;2023-05-07T09:10:54;10.50;99.90
18876;DHT22;9570;50.854;13.778;2023-05-07T09:13:20;10.30;99.90
18876;DHT22;9570;50.854;13.778;2023-05-07T09:15:46;10.40;99.90
18876;DHT22;9570;50.854;13.778;2023-05-07T09:18:14;10.40;99.90
18876;DHT22;9570;50.854;13.778;2023-05-07T09:20:40;10.50;99.90
18876;DHT22;9570;50.854;13.778;2023-05-07T09:23:07;10.30;99.90
18876;DHT22;9570;50.854;13.778;2023-05-07T09:25:34;10.30;99.90
18876;DHT22;9570;50.854;13.778;2023-05-07T09:28:00;10.30;99.90
18876;DHT22;9570;50.854;13.778;2023-05-07T09:30:33;10.50;99.90
18876;DHT22;9570;50.854;13.778;2023-05-07T09:32:59;10.50;99.90
18876;DHT22;9570;50.854;13.778;2023-05-07T09:35:25;10.70;99.90
18876;DHT22;9570;50.854;13.778;2023-05-07T09:37:56;10.90;99.90
18876;DHT22;9570;50.854;13.778;2023-05-07T09:40:26;11.00;99.90
18876;DHT22;9570;50.854;13.778;2023-05-07T09:42:52;11.10;99.90
18876;DHT22;9570;50.854;13.778;2023-05-07T09:45:25;11.20;99.90
18876;DHT22;9570;50.854;13.778;2023-05-07T09:47:57;11.20;99.90
18876;DHT22;9570;50.854;13.778;2023-05-07T09:50:30;11.10;99.90
18876;DHT22;9570;50.854;13.778;2023-05-07T09:52:57;11.00;99.90
18876;DHT22;9570;50.854;13.778;2023-05-07T09:55:23;10.90;99.90
18876;DHT22;9570;50.854;13.778;2023-05-07T09:57:53;11.10;99.90
18876;DHT22;9570;50.854;13.778;2023-05-07T10:00:19;11.20;99.90
18876;DHT22;9570;50.854;13.778;2023-05-07T10:02:50;11.20;99.90
18876;DHT22;9570;50.854;13.778;2023-05-07T10:05:18;11.20;99.90
18876;DHT22;9570;50.854;13.778;2023-05-07T10:07:46;11.10;99.90
18876;DHT22;9570;50.854;13.778;2023-05-07T10:10:12;11.20;99.90
18876;DHT22;9570;50.854;13.778;2023-05-07T10:12:38;11.20;99.90
18876;DHT22;9570;50.854;13.778;2023-05-07T10:15:06;11.20;99.90
18876;DHT22;9570;50.854;13.778;2023-05-07T10:17:37;11.10;99.90
18876;DHT22;9570;50.854;13.778;2023-05-07T10:20:04;11.30;99.90
18876;DHT22;9570;50.854;13.778;2023-05-07T10:22:40;11.20;99.90
18876;DHT22;9570;50.854;13.778;2023-05-07T10:25:18;11.20;99.90
18876;DHT22;9570;50.854;13.778;2023-05-07T10:27:45;11.30;99.90
18876;DHT22;9570;50.854;13.778;2023-05-07T10:30:38;11.40;99.90
18876;DHT22;9570;50.854;13.778;2023-05-07T10:33:07;11.40;99.90
18876;DHT22;9570;50.854;13.778;2023-05-07T10:35:42;11.30;99.90
18876;DHT22;9570;50.854;13.778;2023-05-07T10:38:08;11.10;99.90
18876;DHT22;9570;50.854;13.778;2023-05-07T10:40:34;11.10;99.90
18876;DHT22;9570;50.854;13.778;2023-05-07T10:43:01;11.30;99.90
18876;DHT22;9570;50.854;13.778;2023-05-07T10:45:28;11.30;99.90
18876;DHT22;9570;50.854;13.778;2023-05-07T10:48:12;11.40;99.90
18876;DHT22;9570;50.854;13.778;2023-05-07T10:50:39;11.30;99.90
18876;DHT22;9570;50.854;13.778;2023-05-07T10:55:53;11.40;99.90
18876;DHT22;9570;50.854;13.778;2023-05-07T10:58:28;11.40;99.90
18876;DHT22;9570;50.854;13.778;2023-05-07T11:00:58;11.50;99.90
18876;DHT22;9570;50.854;13.778;2023-05-07T11:03:25;11.50;99.90
18876;DHT22;9570;50.854;13.778;2023-05-07T11:06:14;11.40;99.90
18876;DHT22;9570;50.854;13.778;2023-05-07T11:08:52;11.40;99.90
18876;DHT22;9570;50.854;13.778;2023-05-07T11:11:18;11.60;99.90
18876;DHT22;9570;50.854;13.778;2023-05-07T11:16:18;11.60;99.90
18876;DHT22;9570;50.854;13.778;2023-05-07T11:18:55;11.70;99.90
18876;DHT22;9570;50.854;13.778;2023-05-07T11:21:36;11.80;99.90
18876;DHT22;9570;50.854;13.778;2023-05-07T11:24:03;12.00;99.90
18876;DHT22;9570;50.854;13.778;2023-05-07T11:26:32;12.00;99.90
18876;DHT22;9570;50.854;13.778;2023-05-07T11:29:11;12.00;99.90
18876;DHT22;9570;50.854;13.778;2023-05-07T11:31:37;11.90;99.90
18876;DHT22;9570;50.854;13.778;2023-05-07T11:34:02;11.90;99.90
18876;DHT22;9570;50.854;13.778;2023-05-07T11:36:32;11.90;99.90
18876;DHT22;9570;50.854;13.778;2023-05-07T11:38:57;12.10;99.90
18876;DHT22;9570;50.854;13.778;2023-05-07T11:41:33;12.40;99.90
18876;DHT22;9570;50.854;13.778;2023-05-07T11:43:59;12.60;99.90
18876;DHT22;9570;50.854;13.778;2023-05-07T11:46:26;12.60;99.90
18876;DHT22;9570;50.854;13.778;2023-05-07T11:48:52;12.40;99.90
18876;DHT22;9570;50.854;13.778;2023-05-07T11:51:22;12.30;99.90
18876;DHT22;9570;50.854;13.778;2023-05-07T11:53:48;12.30;99.90
18876;DHT22;9570;50.854;13.778;2023-05-07T11:56:15;12.20;99.90
18876;DHT22;9570;50.854;13.778;2023-05-07T11:58:43;12.10;99.90
18876;DHT22;9570;50.854;13.778;2023-05-07T12:01:10;12.10;99.90
18876;DHT22;9570;50.854;13.778;2023-05-07T12:03:36;12.40;99.90
18876;DHT22;9570;50.854;13.778;2023-05-07T12:06:07;12.50;99.90
18876;DHT22;9570;50.854;13.778;2023-05-07T12:08:32;12.50;99.90
18876;DHT22;9570;50.854;13.778;2023-05-07T12:10:58;12.60;99.90
18876;DHT22;9570;50.854;13.778;2023-05-07T12:13:25;12.50;99.90
18876;DHT22;9570;50.854;13.778;2023-05-07T12:15:51;12.50;99.90
18876;DHT22;9570;50.854;13.778;2023-05-07T12:18:17;12.70;99.90
18876;DHT22;9570;50.854;13.778;2023-05-07T12:20:43;12.50;99.90
18876;DHT22;9570;50.854;13.778;2023-05-07T12:23:10;12.60;99.90
18876;DHT22;9570;50.854;13.778;2023-05-07T12:25:37;12.60;99.90
18876;DHT22;9570;50.854;13.778;2023-05-07T12:28:03;12.70;99.90
18876;DHT22;9570;50.854;13.778;2023-05-07T12:30:38;12.80;99.90
18876;DHT22;9570;50.854;13.778;2023-05-07T12:33:04;13.20;99.90
18876;DHT22;9570;50.854;13.778;2023-05-07T12:35:39;13.40;99.90
18876;DHT22;9570;50.854;13.778;2023-05-07T12:38:09;13.30;99.90
18876;DHT22;9570;50.854;13.778;2023-05-07T12:40:37;13.30;99.90
18876;DHT22;9570;50.854;13.778;2023-05-07T12:43:03;13.20;99.90
18876;DHT22;9570;50.854;13.778;2023-05-07T12:45:28;13.00;99.90
18876;DHT22;9570;50.854;13.778;2023-05-07T12:47:54;13.10;99.90
18876;DHT22;9570;50.854;13.778;2023-05-07T12:50:19;13.10;99.90
18876;DHT22;9570;50.854;13.778;2023-05-07T12:52:47;13.10;99.90
18876;DHT22;9570;50.854;13.778;2023-05-07T12:55:16;13.10;99.90
18876;DHT22;9570;50.854;13.778;2023-05-07T12:57:43;13.20;99.90
18876;DHT22;9570;50.854;13.778;2023-05-07T13:00:11;13.00;99.90
18876;DHT22;9570;50.854;13.778;2023-05-07T13:02:41;12.90;99.90
18876;DHT22;9570;50.854;13.778;2023-05-07T13:05:07;13.00;99.90
18876;DHT22;9570;50.854;13.778;2023-05-07T13:07:33;13.20;99.90
18876;DHT22;9570;50.854;13.778;2023-05-07T13:09:59;13.10;99.90
18876;DHT22;9570;50.854;13.778;2023-05-07T13:12:24;13.00;99.90
18876;DHT22;9570;50.854;13.778;2023-05-07T13:14:49;13.20;99.90
18876;DHT22;9570;50.854;13.778;2023-05-07T13:17:15;13.20;99.90
18876;DHT22;9570;50.854;13.778;2023-05-07T13:19:40;13.30;99.90
18876;DHT22;9570;50.854;13.778;2023-05-07T13:22:06;13.20;99.90
18876;DHT22;9570;50.854;13.778;2023-05-07T13:24:31;13.10;99.90
18876;DHT22;9570;50.854;13.778;2023-05-07T13:26:57;13.30;99.90
18876;DHT22;9570;50.854;13.778;2023-05-07T13:29:22;13.40;99.90
18876;DHT22;9570;50.854;13.778;2023-05-07T13:31:56;13.40;99.90
18876;DHT22;9570;50.854;13.778;2023-05-07T13:34:21;13.60;99.90
18876;DHT22;9570;50.854;13.778;2023-05-07T13:36:46;13.70;99.90
18876;DHT22;9570;50.854;13.778;2023-05-07T13:39:12;13.70;99.90
18876;DHT22;9570;50.854;13.778;2023-05-07T13:41:37;13.80;99.90
18876;DHT22;9570;50.854;13.778;2023-05-07T13:44:03;13.70;99.90
18876;DHT22;9570;50.854;13.778;2023-05-07T13:46:29;13.70;99.90
18876;DHT22;9570;50.854;13.778;2023-05-07T13:48:55;13.70;99.90
18876;DHT22;9570;50.854;13.778;2023-05-07T13:51:21;13.80;99.90
18876;DHT22;9570;50.854;13.778;2023-05-07T13:53:46;13.90;99.90
18876;DHT22;9570;50.854;13.778;2023-05-07T13:56:12;13.90;99.90
18876;DHT22;9570;50.854;13.778;2023-05-07T13:58:38;13.60;99.90
18876;DHT22;9570;50.854;13.778;2023-05-07T14:01:03;13.60;99.90
18876;DHT22;9570;50.854;13.778;2023-05-07T14:03:29;13.30;99.90
18876;DHT22;9570;50.854;13.778;2023-05-07T14:05:57;13.30;99.90
18876;DHT22;9570;50.854;13.778;2023-05-07T14:08:23;13.30;99.90
18876;DHT22;9570;50.854;13.778;2023-05-07T14:10:48;13.20;99.90
18876;DHT22;9570;50.854;13.778;2023-05-07T14:13:14;13.20;99.90
18876;DHT22;9570;50.854;13.778;2023-05-07T14:15:39;13.30;99.90
18876;DHT22;9570;50.854;13.778;2023-05-07T14:18:05;13.50;99.90
18876;DHT22;9570;50.854;13.778;2023-05-07T14:20:31;13.60;99.90
18876;DHT22;9570;50.854;13.778;2023-05-07T14:22:56;13.70;99.90
18876;DHT22;9570;50.854;13.778;2023-05-07T14:25:22;13.80;99.90
18876;DHT22;9570;50.854;13.778;2023-05-07T14:27:47;13.70;99.90
18876;DHT22;9570;50.854;13.778;2023-05-07T14:30:13;13.60;99.90
18876;DHT22;9570;50.854;13.778;2023-05-07T14:32:38;13.60;99.90
18876;DHT22;9570;50.854;13.778;2023-05-07T14:35:04;13.40;99.90
18876;DHT22;9570;50.854;13.778;2023-05-07T14:37:29;13.40;99.90
18876;DHT22;9570;50.854;13.778;2023-05-07T14:39:55;13.50;99.90
18876;DHT22;9570;50.854;13.778;2023-05-07T14:42:20;13.60;99.90
18876;DHT22;9570;50.854;13.778;2023-05-07T14:44:46;13.70;99.90
18876;DHT22;9570;50.854;13.778;2023-05-07T14:47:13;13.50;99.90
18876;DHT22;9570;50.854;13.778;2023-05-07T14:49:39;13.40;99.90
18876;DHT22;9570;50.854;13.778;2023-05-07T14:52:04;13.40;99.90
18876;DHT22;9570;50.854;13.778;2023-05-07T14:54:33;13.20;99.90
18876;DHT22;9570;50.854;13.778;2023-05-07T14:56:59;13.00;99.90
18876;DHT22;9570;50.854;13.778;2023-05-07T14:59:25;13.00;99.90
18876;DHT22;9570;50.854;13.778;2023-05-07T15:01:50;13.20;99.90
18876;DHT22;9570;50.854;13.778;2023-05-07T15:04:16;13.30;99.90
18876;DHT22;9570;50.854;13.778;2023-05-07T15:06:42;13.50;99.90
18876;DHT22;9570;50.854;13.778;2023-05-07T15:09:07;13.50;99.90
18876;DHT22;9570;50.854;13.778;2023-05-07T15:11:34;13.50;99.90
18876;DHT22;9570;50.854;13.778;2023-05-07T15:13:59;13.30;99.90
18876;DHT22;9570;50.854;13.778;2023-05-07T15:16:25;13.40;99.90
18876;DHT22;9570;50.854;13.778;2023-05-07T15:18:51;13.40;99.90
18876;DHT22;9570;50.854;13.778;2023-05-07T15:21:16;13.40;99.90
18876;DHT22;9570;50.854;13.778;2023-05-07T15:23:42;13.40;99.90
18876;DHT22;9570;50.854;13.778;2023-05-07T15:26:08;13.40;99.90
18876;DHT22;9570;50.854;13.778;2023-05-07T15:28:34;13.40;99.90
18876;DHT22;9570;50.854;13.778;2023-05-07T15:31:00;13.60;99.90